Time;durP1;ratioP1;P1;durP2;ratioP2;P2;SDS_P1;SDS_P2;PMS_P1;PMS_P2;Temp;Humidity;BMP_temperature;BMP_pressure;BME280_temperature;BME280_humidity;BME280_pressure;Samples;Min_cycle;Max_cycle;Signal;HPM_P1;HPM_P2
2022/10/06 00:01:13;;;;;;;;;;;21.60;43.60;;;;;;485684;245;1283;-53
2022/10/06 00:03:14;;;;;;;;;;;21.60;43.50;;;;;;485021;245;1210;-53
2022/10/06 00:05:15;;;;;;;;;;;21.60;43.40;;;;;;485518;245;2152;-54
2022/10/06 00:07:17;;;;;;;;;;;21.60;43.40;;;;;;485697;245;1237;-53
2022/10/06 00:09:18;;;;;;;;;;;21.60;43.40;;;;;;485658;245;1086;-54
2022/10/06 00:11:19;;;;;;;;;;;21.60;43.30;;;;;;485229;245;1289;-54
2022/10/06 00:13:21;;;;;;;;;;;21.60;43.30;;;;;;485514;245;1193;-54
2022/10/06 00:15:22;;;;;;;;;;;21.60;43.30;;;;;;485700;245;1165;-54
2022/10/06 00:17:23;;;;;;;;;;;21.60;43.40;;;;;;485291;245;1207;-54
2022/10/06 00:19:24;;;;;;;;;;;21.60;43.30;;;;;;485769;245;1111;-53
2022/10/06 00:21:26;;;;;;;;;;;21.60;43.30;;;;;;485272;245;1249;-54
2022/10/06 00:23:27;;;;;;;;;;;21.60;43.20;;;;;;485429;245;1025;-54
2022/10/06 00:25:28;;;;;;;;;;;21.60;43.20;;;;;;485335;245;2168;-54
2022/10/06 00:27:30;;;;;;;;;;;21.60;43.10;;;;;;485374;245;1144;-54
2022/10/06 00:29:31;;;;;;;;;;;21.60;43.10;;;;;;485328;245;1102;-54
2022/10/06 00:31:33;;;;;;;;;;;21.60;43.10;;;;;;485331;245;1213;-54
2022/10/06 00:33:36;;;;;;;;;;;21.60;43.10;;;;;;485271;245;1198;-53
2022/10/06 00:35:35;;;;;;;;;;;21.60;43.00;;;;;;485611;246;2547;-54
2022/10/06 00:37:36;;;;;;;;;;;21.60;43.00;;;;;;485305;245;1313;-53
2022/10/06 00:39:38;;;;;;;;;;;21.60;42.90;;;;;;485444;245;1145;-54
2022/10/06 00:41:39;;;;;;;;;;;21.70;42.90;;;;;;485636;245;1199;-54
2022/10/06 00:43:40;;;;;;;;;;;21.70;42.90;;;;;;485581;245;1267;-54
2022/10/06 00:45:42;;;;;;;;;;;21.60;42.90;;;;;;485547;245;2159;-53
2022/10/06 00:47:43;;;;;;;;;;;21.60;42.90;;;;;;485726;245;1291;-53
2022/10/06 00:49:44;;;;;;;;;;;21.60;42.90;;;;;;485702;245;1336;-52
2022/10/06 00:51:46;;;;;;;;;;;21.60;42.90;;;;;;485724;245;1362;-54
2022/10/06 00:53:47;;;;;;;;;;;21.60;42.90;;;;;;485634;245;1413;-54
2022/10/06 00:55:49;;;;;;;;;;;21.60;42.90;;;;;;485661;245;1366;-54
2022/10/06 00:57:50;;;;;;;;;;;21.60;42.80;;;;;;485745;245;1210;-53
2022/10/06 00:59:51;;;;;;;;;;;21.60;42.80;;;;;;485347;245;1363;-53
2022/10/06 01:01:53;;;;;;;;;;;21.60;42.70;;;;;;485748;245;1201;-54
2022/10/06 01:03:54;;;;;;;;;;;21.60;42.70;;;;;;485041;245;1322;-54
2022/10/06 01:05:55;;;;;;;;;;;21.60;42.70;;;;;;485252;245;2235;-54
2022/10/06 01:07:57;;;;;;;;;;;21.60;42.60;;;;;;485726;245;1270;-54
2022/10/06 01:09:58;;;;;;;;;;;21.60;42.70;;;;;;485680;245;1263;-53
2022/10/06 01:11:59;;;;;;;;;;;21.60;42.70;;;;;;485490;245;1277;-54
2022/10/06 01:14:00;;;;;;;;;;;21.60;42.70;;;;;;485249;245;1247;-53
2022/10/06 01:16:02;;;;;;;;;;;21.60;42.80;;;;;;485290;245;1520;-54
2022/10/06 01:18:03;;;;;;;;;;;21.60;42.80;;;;;;485510;245;1230;-53
2022/10/06 01:20:07;;;;;;;;;;;21.50;42.70;;;;;;485263;245;1341;-54
2022/10/06 01:22:07;;;;;;;;;;;21.60;42.80;;;;;;485176;245;1470;-53
2022/10/06 01:24:08;;;;;;;;;;;21.60;42.70;;;;;;485721;245;1246;-54
2022/10/06 01:26:09;;;;;;;;;;;21.60;42.80;;;;;;485763;245;2207;-54
2022/10/06 01:28:10;;;;;;;;;;;21.50;43.00;;;;;;485306;245;1112;-54
2022/10/06 01:30:12;;;;;;;;;;;21.50;43.20;;;;;;485364;245;1165;-54
2022/10/06 01:32:13;;;;;;;;;;;21.50;43.30;;;;;;485380;245;1295;-53
2022/10/06 01:34:14;;;;;;;;;;;21.50;43.40;;;;;;485146;245;1155;-54
2022/10/06 01:36:16;;;;;;;;;;;21.40;43.40;;;;;;485290;245;1204;-54
2022/10/06 01:38:17;;;;;;;;;;;21.50;43.60;;;;;;485390;245;1353;-53
2022/10/06 01:40:18;;;;;;;;;;;21.40;43.60;;;;;;485439;245;1251;-54
2022/10/06 01:42:20;;;;;;;;;;;21.50;43.70;;;;;;485292;245;1262;-53
2022/10/06 01:44:21;;;;;;;;;;;21.40;43.70;;;;;;485595;245;1235;-54
2022/10/06 01:46:22;;;;;;;;;;;21.40;43.80;;;;;;485318;245;2206;-54
2022/10/06 01:48:24;;;;;;;;;;;21.40;43.80;;;;;;485247;245;1412;-53
2022/10/06 01:50:25;;;;;;;;;;;21.40;43.90;;;;;;485713;245;1252;-54
2022/10/06 01:52:26;;;;;;;;;;;21.40;43.80;;;;;;485708;245;1340;-53
2022/10/06 01:54:28;;;;;;;;;;;21.40;43.90;;;;;;485545;245;1255;-54
2022/10/06 01:56:29;;;;;;;;;;;21.40;44.00;;;;;;485631;245;1305;-53
2022/10/06 01:58:30;;;;;;;;;;;21.40;44.00;;;;;;485713;245;1252;-53
2022/10/06 02:00:32;;;;;;;;;;;21.40;44.10;;;;;;485356;245;1242;-53
2022/10/06 02:02:33;;;;;;;;;;;21.40;44.10;;;;;;485335;245;1384;-53
2022/10/06 02:04:34;;;;;;;;;;;21.40;44.10;;;;;;485414;245;1247;-53
2022/10/06 02:06:35;;;;;;;;;;;21.40;44.20;;;;;;485508;245;2199;-54
2022/10/06 02:08:37;;;;;;;;;;;21.40;44.20;;;;;;485592;245;1288;-53
2022/10/06 02:10:38;;;;;;;;;;;21.40;44.10;;;;;;485718;245;1243;-54
2022/10/06 02:12:39;;;;;;;;;;;21.40;44.10;;;;;;485724;245;1220;-53
2022/10/06 02:14:41;;;;;;;;;;;21.40;44.20;;;;;;485610;245;1471;-53
2022/10/06 02:16:42;;;;;;;;;;;21.40;44.20;;;;;;485721;245;1177;-53
2022/10/06 02:18:43;;;;;;;;;;;21.40;44.20;;;;;;485553;245;1383;-54
2022/10/06 02:20:45;;;;;;;;;;;21.40;44.30;;;;;;485389;245;1421;-53
2022/10/06 02:22:46;;;;;;;;;;;21.40;44.30;;;;;;485406;245;1227;-53
2022/10/06 02:24:47;;;;;;;;;;;21.40;44.30;;;;;;485724;245;1319;-53
2022/10/06 02:26:49;;;;;;;;;;;21.40;44.30;;;;;;485732;245;2155;-54
2022/10/06 02:28:50;;;;;;;;;;;21.40;44.30;;;;;;485302;245;1304;-54
2022/10/06 02:30:51;;;;;;;;;;;21.40;44.30;;;;;;485396;245;1237;-53
2022/10/06 02:32:53;;;;;;;;;;;21.40;44.40;;;;;;485174;245;1203;-54
2022/10/06 02:34:54;;;;;;;;;;;21.40;44.40;;;;;;485706;245;1223;-53
2022/10/06 02:36:56;;;;;;;;;;;21.30;44.40;;;;;;485724;245;1259;-53
2022/10/06 02:38:57;;;;;;;;;;;21.40;44.50;;;;;;485371;245;2347;-54
2022/10/06 02:40:58;;;;;;;;;;;21.40;44.50;;;;;;485730;245;1243;-54
2022/10/06 02:42:59;;;;;;;;;;;21.40;44.40;;;;;;485634;245;1207;-53
2022/10/06 02:45:01;;;;;;;;;;;21.40;44.50;;;;;;485668;245;1171;-54
2022/10/06 02:47:02;;;;;;;;;;;21.40;44.60;;;;;;485493;245;2191;-54
2022/10/06 02:49:03;;;;;;;;;;;21.40;44.50;;;;;;485593;245;1308;-54
2022/10/06 02:51:05;;;;;;;;;;;21.30;44.50;;;;;;485744;245;1349;-53
2022/10/06 02:53:07;;;;;;;;;;;21.40;44.60;;;;;;485721;245;1323;-54
2022/10/06 02:55:08;;;;;;;;;;;21.40;44.60;;;;;;485552;246;1623;-53
2022/10/06 02:57:09;;;;;;;;;;;21.30;44.50;;;;;;485670;245;1255;-54
2022/10/06 02:59:10;;;;;;;;;;;21.40;44.60;;;;;;485703;245;1366;-53
2022/10/06 03:01:12;;;;;;;;;;;21.40;44.60;;;;;;485239;245;1267;-53
2022/10/06 03:03:13;;;;;;;;;;;21.30;44.60;;;;;;485025;245;1284;-53
2022/10/06 03:05:14;;;;;;;;;;;21.30;44.70;;;;;;485315;245;1341;-54
2022/10/06 03:07:16;;;;;;;;;;;21.30;44.70;;;;;;485535;245;2195;-54
2022/10/06 03:09:17;;;;;;;;;;;21.30;44.60;;;;;;485529;245;1235;-53
2022/10/06 03:11:18;;;;;;;;;;;21.30;44.70;;;;;;485721;245;1317;-54
2022/10/06 03:13:20;;;;;;;;;;;21.30;44.70;;;;;;485275;245;1236;-53
2022/10/06 03:15:21;;;;;;;;;;;21.40;44.70;;;;;;485568;245;1329;-54
2022/10/06 03:17:22;;;;;;;;;;;21.30;44.70;;;;;;485742;245;1196;-54
2022/10/06 03:19:24;;;;;;;;;;;21.30;44.70;;;;;;485287;245;1209;-54
2022/10/06 03:21:25;;;;;;;;;;;21.40;44.80;;;;;;485606;245;1234;-54
2022/10/06 03:23:26;;;;;;;;;;;21.30;44.80;;;;;;485757;245;1297;-54
2022/10/06 03:25:28;;;;;;;;;;;21.30;44.80;;;;;;485743;245;1201;-54
2022/10/06 03:27:29;;;;;;;;;;;21.30;44.80;;;;;;485296;245;2109;-54
2022/10/06 03:29:30;;;;;;;;;;;21.30;44.80;;;;;;485281;245;1191;-53
2022/10/06 03:31:32;;;;;;;;;;;21.40;44.80;;;;;;485295;245;1155;-54
2022/10/06 03:33:33;;;;;;;;;;;21.30;44.80;;;;;;485352;245;1241;-54
2022/10/06 03:35:34;;;;;;;;;;;21.40;44.90;;;;;;485301;245;1158;-54
2022/10/06 03:37:36;;;;;;;;;;;21.30;44.80;;;;;;485321;245;1294;-54
2022/10/06 03:39:37;;;;;;;;;;;21.30;44.80;;;;;;485656;245;1186;-54
2022/10/06 03:41:38;;;;;;;;;;;21.30;44.90;;;;;;485745;245;1279;-54
2022/10/06 03:43:40;;;;;;;;;;;21.40;44.90;;;;;;485315;245;1115;-54
2022/10/06 03:45:41;;;;;;;;;;;21.30;44.90;;;;;;485247;245;1229;-53
2022/10/06 03:47:42;;;;;;;;;;;21.30;44.90;;;;;;485431;245;2127;-53
2022/10/06 03:49:44;;;;;;;;;;;21.30;44.90;;;;;;485756;245;1292;-53
2022/10/06 03:51:45;;;;;;;;;;;21.30;45.00;;;;;;485718;245;1191;-54
2022/10/06 03:53:46;;;;;;;;;;;21.30;45.00;;;;;;485777;245;1212;-54
2022/10/06 03:55:48;;;;;;;;;;;21.30;45.00;;;;;;485724;245;1474;-54
2022/10/06 03:57:49;;;;;;;;;;;21.30;44.90;;;;;;485751;245;1272;-54
2022/10/06 03:59:50;;;;;;;;;;;21.30;45.00;;;;;;485746;245;1158;-54
2022/10/06 04:01:54;;;;;;;;;;;21.30;45.00;;;;;;485308;245;1368;-53
2022/10/06 04:03:54;;;;;;;;;;;21.30;45.00;;;;;;485084;246;2357;-53
2022/10/06 04:05:55;;;;;;;;;;;21.30;45.00;;;;;;485308;245;2180;-54
2022/10/06 04:07:56;;;;;;;;;;;21.30;45.00;;;;;;485415;245;1304;-54
2022/10/06 04:09:58;;;;;;;;;;;21.30;45.00;;;;;;485737;245;1291;-54
2022/10/06 04:11:59;;;;;;;;;;;21.30;45.00;;;;;;485603;245;2516;-54
2022/10/06 04:14:00;;;;;;;;;;;21.30;45.00;;;;;;485665;245;1282;-53
2022/10/06 04:16:02;;;;;;;;;;;21.30;45.00;;;;;;485670;245;1235;-54
2022/10/06 04:18:03;;;;;;;;;;;21.30;45.10;;;;;;485266;245;1237;-54
2022/10/06 04:20:04;;;;;;;;;;;21.30;45.00;;;;;;485293;245;1212;-53
2022/10/06 04:22:05;;;;;;;;;;;21.30;45.10;;;;;;485442;245;1236;-54
2022/10/06 04:24:07;;;;;;;;;;;21.30;45.10;;;;;;485761;245;1159;-54
2022/10/06 04:26:09;;;;;;;;;;;21.30;45.10;;;;;;485397;245;2156;-53
2022/10/06 04:28:10;;;;;;;;;;;21.30;45.10;;;;;;485314;245;1179;-54
2022/10/06 04:30:11;;;;;;;;;;;21.30;45.10;;;;;;485466;245;1180;-53
2022/10/06 04:32:14;;;;;;;;;;;21.40;45.10;;;;;;485225;245;1194;-54
2022/10/06 04:34:14;;;;;;;;;;;21.40;45.10;;;;;;485060;246;2243;-53
2022/10/06 04:36:15;;;;;;;;;;;21.40;45.10;;;;;;485752;245;1328;-54
2022/10/06 04:38:16;;;;;;;;;;;21.30;45.10;;;;;;485240;245;1176;-54
2022/10/06 04:40:18;;;;;;;;;;;21.30;45.10;;;;;;485448;245;1244;-54
2022/10/06 04:42:19;;;;;;;;;;;21.30;45.10;;;;;;485284;245;1279;-53
2022/10/06 04:44:21;;;;;;;;;;;21.30;45.10;;;;;;485547;245;1256;-54
2022/10/06 04:46:22;;;;;;;;;;;21.40;45.20;;;;;;485294;245;2168;-54
2022/10/06 04:48:23;;;;;;;;;;;21.30;45.10;;;;;;485292;245;1267;-53
2022/10/06 04:50:24;;;;;;;;;;;21.40;45.20;;;;;;485741;245;1376;-54
2022/10/06 04:52:26;;;;;;;;;;;21.30;45.10;;;;;;485762;245;1175;-54
2022/10/06 04:54:27;;;;;;;;;;;21.40;45.20;;;;;;485374;245;1084;-54
2022/10/06 04:56:28;;;;;;;;;;;21.30;45.20;;;;;;485211;245;1103;-54
2022/10/06 04:58:30;;;;;;;;;;;21.30;45.20;;;;;;485555;245;1108;-54
2022/10/06 05:00:31;;;;;;;;;;;21.30;45.20;;;;;;485736;245;1122;-54
2022/10/06 05:02:32;;;;;;;;;;;21.30;45.20;;;;;;485426;245;1365;-53
2022/10/06 05:04:34;;;;;;;;;;;21.30;45.10;;;;;;485263;245;1179;-53
2022/10/06 05:06:35;;;;;;;;;;;21.40;45.20;;;;;;485706;245;2164;-53
2022/10/06 05:08:36;;;;;;;;;;;21.30;45.20;;;;;;485750;245;1234;-53
2022/10/06 05:10:38;;;;;;;;;;;21.30;45.20;;;;;;485433;245;1237;-54
2022/10/06 05:12:39;;;;;;;;;;;21.40;45.20;;;;;;485325;245;1259;-53
2022/10/06 05:14:40;;;;;;;;;;;21.30;45.30;;;;;;485697;245;1229;-53
2022/10/06 05:16:42;;;;;;;;;;;21.30;45.20;;;;;;485444;245;1210;-53
2022/10/06 05:18:43;;;;;;;;;;;21.30;45.30;;;;;;485247;245;1258;-53
2022/10/06 05:20:45;;;;;;;;;;;21.30;45.20;;;;;;485169;245;1267;-54
2022/10/06 05:22:46;;;;;;;;;;;21.30;45.30;;;;;;485248;245;1261;-53
2022/10/06 05:24:52;;;;;;;;;;;21.30;45.40;;;;;;485254;245;1223;-53
2022/10/06 05:26:48;;;;;;;;;;;21.30;45.40;;;;;;484898;246;2191;-53
2022/10/06 05:28:50;;;;;;;;;;;21.30;45.40;;;;;;485159;245;1282;-54
2022/10/06 05:30:52;;;;;;;;;;;21.30;45.30;;;;;;485625;245;1228;-53
2022/10/06 05:32:53;;;;;;;;;;;21.30;45.30;;;;;;485276;245;1348;-53
2022/10/06 05:34:54;;;;;;;;;;;21.30;45.40;;;;;;485446;245;1257;-53
2022/10/06 05:36:55;;;;;;;;;;;21.30;45.40;;;;;;485381;245;1316;-54
2022/10/06 05:38:56;;;;;;;;;;;21.30;45.40;;;;;;485700;245;1230;-54
2022/10/06 05:40:58;;;;;;;;;;;21.30;45.40;;;;;;485758;245;1176;-53
2022/10/06 05:42:59;;;;;;;;;;;21.30;45.40;;;;;;485489;245;1242;-54
2022/10/06 05:45:00;;;;;;;;;;;21.30;45.40;;;;;;485005;245;1360;-53
2022/10/06 05:47:02;;;;;;;;;;;21.30;45.40;;;;;;485324;245;2198;-54
2022/10/06 05:49:03;;;;;;;;;;;21.30;45.40;;;;;;485041;245;1227;-53
2022/10/06 05:51:05;;;;;;;;;;;21.30;45.40;;;;;;485047;245;1284;-53
2022/10/06 05:53:06;;;;;;;;;;;21.30;45.40;;;;;;485656;245;1233;-53
2022/10/06 05:55:07;;;;;;;;;;;21.30;45.40;;;;;;485370;245;1257;-54
2022/10/06 05:57:09;;;;;;;;;;;21.30;45.40;;;;;;485340;245;1235;-53
2022/10/06 05:59:10;;;;;;;;;;;21.30;45.40;;;;;;485330;245;1211;-53
2022/10/06 06:01:12;;;;;;;;;;;21.30;45.30;;;;;;485131;245;1181;-53
2022/10/06 06:03:13;;;;;;;;;;;21.30;45.30;;;;;;484951;245;1178;-53
2022/10/06 06:05:14;;;;;;;;;;;21.30;45.40;;;;;;485519;245;1169;-53
2022/10/06 06:07:15;;;;;;;;;;;21.30;45.30;;;;;;485118;245;2163;-54
2022/10/06 06:09:17;;;;;;;;;;;21.30;45.40;;;;;;485462;245;1278;-54
2022/10/06 06:11:24;;;;;;;;;;;21.30;45.40;;;;;;485057;245;1203;-53
2022/10/06 06:13:20;;;;;;;;;;;21.30;45.40;;;;;;484631;246;2173;-54
2022/10/06 06:17:41;;;;;;;;;;;21.30;45.40;;;;;;485221;246;1373;-53
2022/10/06 06:19:42;;;;;;;;;;;21.30;45.40;;;;;;485657;246;1271;-54
2022/10/06 06:21:43;;;;;;;;;;;21.40;45.40;;;;;;485103;245;1164;-53
2022/10/06 06:23:45;;;;;;;;;;;21.30;45.40;;;;;;485183;245;1340;-54
2022/10/06 06:25:46;;;;;;;;;;;21.40;45.40;;;;;;485263;245;1686;-53
2022/10/06 06:27:47;;;;;;;;;;;21.40;45.40;;;;;;485054;245;2157;-53
2022/10/06 06:29:49;;;;;;;;;;;21.40;45.40;;;;;;485377;245;1522;-53
2022/10/06 06:31:50;;;;;;;;;;;21.40;45.40;;;;;;484952;245;1185;-53
2022/10/06 06:33:51;;;;;;;;;;;21.30;45.30;;;;;;484920;245;1292;-54
2022/10/06 06:35:53;;;;;;;;;;;21.30;45.40;;;;;;485339;245;1224;-54
2022/10/06 06:37:54;;;;;;;;;;;21.30;45.40;;;;;;485214;245;1270;-53
2022/10/06 06:39:55;;;;;;;;;;;21.30;45.50;;;;;;484965;245;1226;-53
2022/10/06 06:41:57;;;;;;;;;;;21.30;45.50;;;;;;485055;245;1262;-53
2022/10/06 06:43:58;;;;;;;;;;;21.30;45.50;;;;;;484995;245;1231;-53
2022/10/06 06:46:00;;;;;;;;;;;21.30;45.50;;;;;;484977;245;1340;-54
2022/10/06 06:48:02;;;;;;;;;;;21.30;45.50;;;;;;484961;245;2163;-54
2022/10/06 06:50:03;;;;;;;;;;;21.30;45.50;;;;;;484947;246;2073;-54
2022/10/06 06:52:04;;;;;;;;;;;21.30;45.50;;;;;;484907;246;1342;-53
2022/10/06 06:54:05;;;;;;;;;;;21.30;45.50;;;;;;484917;245;1182;-54
2022/10/06 06:56:07;;;;;;;;;;;21.40;45.60;;;;;;484730;245;1442;-53
2022/10/06 06:58:08;;;;;;;;;;;21.40;45.60;;;;;;484920;245;1236;-54
2022/10/06 07:00:09;;;;;;;;;;;21.30;45.50;;;;;;484549;245;1180;-53
2022/10/06 07:02:11;;;;;;;;;;;21.40;45.60;;;;;;484661;245;1254;-53
2022/10/06 07:04:12;;;;;;;;;;;21.40;45.60;;;;;;484601;245;1214;-54
2022/10/06 07:06:15;;;;;;;;;;;21.30;45.60;;;;;;484652;245;1221;-53
2022/10/06 07:08:15;;;;;;;;;;;21.30;45.60;;;;;;484800;246;2639;-53
2022/10/06 07:10:16;;;;;;;;;;;21.40;45.60;;;;;;484822;245;1747;-53
2022/10/06 07:12:18;;;;;;;;;;;21.30;45.60;;;;;;484959;245;1228;-53
2022/10/06 07:14:21;;;;;;;;;;;21.40;45.60;;;;;;484900;245;1299;-54
2022/10/06 07:25:38;;;;;;;;;;;21.40;45.70;;;;;;484908;246;1207;-53
2022/10/06 07:27:40;;;;;;;;;;;21.40;45.70;;;;;;484764;245;2187;-53
2022/10/06 07:29:43;;;;;;;;;;;21.40;45.70;;;;;;484993;245;1371;-54
2022/10/06 07:31:43;;;;;;;;;;;21.40;45.70;;;;;;484942;245;1666;-53
2022/10/06 07:33:44;;;;;;;;;;;21.40;45.70;;;;;;484781;245;1278;-53
2022/10/06 07:35:46;;;;;;;;;;;21.40;45.70;;;;;;485072;245;1295;-53
2022/10/06 07:37:47;;;;;;;;;;;21.40;45.70;;;;;;484904;245;1528;-53
2022/10/06 07:39:48;;;;;;;;;;;21.40;45.80;;;;;;485179;245;1410;-53
2022/10/06 07:41:50;;;;;;;;;;;21.40;45.80;;;;;;484989;245;1202;-54
2022/10/06 07:43:52;;;;;;;;;;;21.40;45.80;;;;;;484787;245;1349;-54
2022/10/06 07:45:55;;;;;;;;;;;21.40;45.80;;;;;;484847;245;1768;-53
2022/10/06 07:47:55;;;;;;;;;;;21.40;45.80;;;;;;484855;245;2172;-54
2022/10/06 07:49:57;;;;;;;;;;;21.40;45.90;;;;;;484749;245;1203;-53
2022/10/06 07:51:58;;;;;;;;;;;21.40;45.90;;;;;;485009;245;1257;-53
2022/10/06 07:53:59;;;;;;;;;;;21.40;45.90;;;;;;484992;245;1323;-53
2022/10/06 07:56:00;;;;;;;;;;;21.40;45.90;;;;;;484742;245;1206;-54
2022/10/06 07:58:02;;;;;;;;;;;21.30;45.90;;;;;;484789;245;1203;-53
2022/10/06 08:00:06;;;;;;;;;;;21.40;45.90;;;;;;484897;245;1235;-55
2022/10/06 08:02:06;;;;;;;;;;;21.40;45.90;;;;;;484858;245;1459;-53
2022/10/06 08:04:07;;;;;;;;;;;21.40;45.90;;;;;;484724;245;1189;-54
2022/10/06 08:06:13;;;;;;;;;;;21.40;45.90;;;;;;484748;245;1241;-53
2022/10/06 08:08:10;;;;;;;;;;;21.40;45.90;;;;;;484887;245;2516;-53
2022/10/06 08:10:11;;;;;;;;;;;21.40;46.00;;;;;;484941;245;1193;-54
2022/10/06 08:14:32;;;;;;;;;;;21.40;46.00;;;;;;503063;237;1728;-53
2022/10/06 08:16:33;;;;;;;;;;;21.40;46.00;;;;;;503017;237;1271;-53
2022/10/06 08:18:34;;;;;;;;;;;21.40;46.00;;;;;;480423;247;1219;-53
2022/10/06 08:20:36;;;;;;;;;;;21.40;46.10;;;;;;488675;243;1160;-53
2022/10/06 08:22:38;;;;;;;;;;;21.40;46.00;;;;;;479561;248;1663;-53
2022/10/06 08:24:39;;;;;;;;;;;21.40;46.10;;;;;;484844;246;2570;-53
2022/10/06 08:26:40;;;;;;;;;;;21.40;46.10;;;;;;484853;245;1238;-53
2022/10/06 08:28:41;;;;;;;;;;;21.40;46.10;;;;;;485171;245;2194;-54
2022/10/06 08:30:42;;;;;;;;;;;21.40;46.10;;;;;;484891;245;1396;-53
2022/10/06 08:32:46;;;;;;;;;;;21.40;46.10;;;;;;484758;245;1301;-53
2022/10/06 08:34:46;;;;;;;;;;;21.40;46.10;;;;;;484691;246;2275;-54
2022/10/06 08:36:46;;;;;;;;;;;21.50;46.20;;;;;;484895;245;1661;-53
2022/10/06 08:38:49;;;;;;;;;;;21.40;46.20;;;;;;484904;245;1100;-54
2022/10/06 08:40:50;;;;;;;;;;;21.40;46.20;;;;;;485212;245;1331;-54
2022/10/06 08:42:51;;;;;;;;;;;21.40;46.30;;;;;;484903;245;1268;-53
2022/10/06 08:44:55;;;;;;;;;;;21.40;46.30;;;;;;484766;245;1249;-53
2022/10/06 08:46:54;;;;;;;;;;;21.40;46.30;;;;;;484755;245;2439;-53
2022/10/06 08:48:57;;;;;;;;;;;21.40;46.30;;;;;;485050;245;2195;-54
2022/10/06 08:50:57;;;;;;;;;;;21.40;46.30;;;;;;484951;246;2037;-53
2022/10/06 08:52:58;;;;;;;;;;;21.40;46.30;;;;;;484898;245;1157;-53
2022/10/06 08:55:00;;;;;;;;;;;21.40;46.30;;;;;;484816;245;1361;-54
2022/10/06 08:57:02;;;;;;;;;;;21.40;46.30;;;;;;484821;245;1512;-53
2022/10/06 08:59:03;;;;;;;;;;;21.40;46.30;;;;;;484793;245;2548;-53
2022/10/06 09:01:04;;;;;;;;;;;21.40;46.30;;;;;;484900;245;1524;-53
2022/10/06 09:03:07;;;;;;;;;;;21.40;46.30;;;;;;484757;245;1266;-54
2022/10/06 09:05:08;;;;;;;;;;;21.40;46.20;;;;;;484991;245;1236;-53
2022/10/06 09:07:10;;;;;;;;;;;21.40;46.20;;;;;;484773;245;1250;-53
2022/10/06 09:09:11;;;;;;;;;;;21.40;46.30;;;;;;484860;245;2159;-53
2022/10/06 09:11:12;;;;;;;;;;;21.40;46.30;;;;;;484682;245;1248;-53
2022/10/06 09:13:13;;;;;;;;;;;21.40;46.30;;;;;;484927;245;1265;-53
2022/10/06 09:15:15;;;;;;;;;;;21.40;46.30;;;;;;485113;245;1254;-53
2022/10/06 09:17:17;;;;;;;;;;;21.40;46.40;;;;;;484774;245;1305;-54
2022/10/06 09:19:18;;;;;;;;;;;21.40;46.50;;;;;;484979;245;1496;-54
2022/10/06 09:21:21;;;;;;;;;;;21.40;46.40;;;;;;485051;245;1292;-54
2022/10/06 09:23:46;;;;;;;;;;;21.40;46.40;;;;;;484699;246;2339;-54
2022/10/06 09:25:24;;;;;;;;;;;21.40;46.40;;;;;;483353;246;2026;-53
2022/10/06 09:27:23;;;;;;;;;;;21.50;46.50;;;;;;484746;246;2482;-53
2022/10/06 09:29:26;;;;;;;;;;;21.50;46.50;;;;;;484863;245;2192;-53
2022/10/06 09:31:26;;;;;;;;;;;21.40;46.50;;;;;;484844;246;2212;-54
2022/10/06 09:33:27;;;;;;;;;;;21.40;46.50;;;;;;484838;242;1260;-53
2022/10/06 09:35:29;;;;;;;;;;;21.40;46.50;;;;;;484911;245;1226;-53
2022/10/06 09:37:30;;;;;;;;;;;21.40;46.60;;;;;;484920;245;1239;-53
2022/10/06 09:39:35;;;;;;;;;;;21.40;46.60;;;;;;484841;245;1241;-53
2022/10/06 09:41:33;;;;;;;;;;;21.50;46.70;;;;;;484767;246;2159;-53
2022/10/06 09:43:34;;;;;;;;;;;21.50;46.60;;;;;;484805;245;1165;-53
2022/10/06 09:45:36;;;;;;;;;;;21.50;46.70;;;;;;484938;245;1237;-53
2022/10/06 09:47:38;;;;;;;;;;;21.40;46.70;;;;;;484888;245;1246;-53
2022/10/06 09:49:40;;;;;;;;;;;21.40;46.70;;;;;;484976;245;2184;-53
2022/10/06 09:51:41;;;;;;;;;;;21.40;46.70;;;;;;484833;245;1224;-54
2022/10/06 09:53:42;;;;;;;;;;;21.40;46.80;;;;;;485195;245;1277;-53
2022/10/06 09:55:43;;;;;;;;;;;21.40;46.80;;;;;;484929;245;1201;-53
2022/10/06 09:57:45;;;;;;;;;;;21.40;46.80;;;;;;484883;245;1264;-53
2022/10/06 09:59:46;;;;;;;;;;;21.40;46.80;;;;;;485021;245;1098;-54
2022/10/06 10:01:47;;;;;;;;;;;21.40;46.90;;;;;;484707;245;1163;-54
2022/10/06 10:03:50;;;;;;;;;;;21.40;46.80;;;;;;484487;245;1237;-53
2022/10/06 10:05:53;;;;;;;;;;;21.40;46.90;;;;;;484845;245;1364;-53
2022/10/06 10:07:52;;;;;;;;;;;21.40;46.80;;;;;;484523;246;2404;-54
2022/10/06 10:09:54;;;;;;;;;;;21.50;46.70;;;;;;484505;245;2208;-53
2022/10/06 10:14:14;;;;;;;;;;;21.50;46.60;;;;;;485064;246;1285;-53
2022/10/06 10:16:18;;;;;;;;;;;21.50;46.30;;;;;;484931;245;1221;-53
2022/10/06 10:18:17;;;;;;;;;;;21.50;46.30;;;;;;484949;246;1355;-53
2022/10/06 10:20:18;;;;;;;;;;;21.60;46.40;;;;;;484960;245;1214;-53
2022/10/06 10:22:22;;;;;;;;;;;21.50;46.30;;;;;;484921;245;1220;-54
2022/10/06 10:24:22;;;;;;;;;;;21.50;46.10;;;;;;485047;246;2423;-53
2022/10/06 10:26:25;;;;;;;;;;;21.60;46.20;;;;;;484851;245;1199;-54
2022/10/06 10:28:25;;;;;;;;;;;21.60;46.10;;;;;;485100;246;2140;-53
2022/10/06 10:30:27;;;;;;;;;;;21.60;46.00;;;;;;485033;245;1383;-54
2022/10/06 10:32:28;;;;;;;;;;;21.60;45.90;;;;;;484830;245;1207;-54
2022/10/06 10:34:30;;;;;;;;;;;21.60;45.80;;;;;;484815;245;1299;-53
2022/10/06 10:36:31;;;;;;;;;;;21.60;45.90;;;;;;484848;245;1329;-54
2022/10/06 10:38:32;;;;;;;;;;;21.60;45.80;;;;;;484853;243;1233;-53
2022/10/06 10:40:34;;;;;;;;;;;21.60;45.70;;;;;;484895;245;1235;-53
2022/10/06 10:42:36;;;;;;;;;;;21.60;45.60;;;;;;484850;245;1273;-53
2022/10/06 10:44:36;;;;;;;;;;;21.60;45.60;;;;;;484877;245;2363;-53
2022/10/06 10:46:38;;;;;;;;;;;21.60;45.70;;;;;;484904;245;1233;-53
2022/10/06 10:48:39;;;;;;;;;;;21.60;45.70;;;;;;484968;245;2199;-54
2022/10/06 10:50:40;;;;;;;;;;;21.60;45.60;;;;;;484973;245;1284;-53
2022/10/06 10:52:42;;;;;;;;;;;21.60;45.60;;;;;;485069;245;1668;-54
2022/10/06 10:54:43;;;;;;;;;;;21.60;45.40;;;;;;484719;245;1224;-53
2022/10/06 10:56:47;;;;;;;;;;;21.60;45.50;;;;;;484816;245;1343;-53
2022/10/06 10:58:46;;;;;;;;;;;21.60;45.40;;;;;;484960;246;2085;-53
2022/10/06 11:00:47;;;;;;;;;;;21.60;45.50;;;;;;485096;245;1554;-53
2022/10/06 11:02:48;;;;;;;;;;;21.60;45.40;;;;;;484680;245;1231;-54
2022/10/06 11:04:50;;;;;;;;;;;21.60;45.40;;;;;;503120;237;1359;-53
2022/10/06 11:06:53;;;;;;;;;;;21.60;45.40;;;;;;502921;237;1450;-53
2022/10/06 11:08:52;;;;;;;;;;;21.70;45.30;;;;;;502891;237;2183;-53
2022/10/06 11:10:54;;;;;;;;;;;21.70;45.30;;;;;;480064;247;1212;-53
2022/10/06 11:12:55;;;;;;;;;;;21.70;45.30;;;;;;488715;243;1145;-53
2022/10/06 11:14:58;;;;;;;;;;;21.70;45.30;;;;;;479238;248;1265;-53
2022/10/06 11:16:59;;;;;;;;;;;21.70;45.20;;;;;;484577;246;2269;-54
2022/10/06 11:18:59;;;;;;;;;;;21.70;45.20;;;;;;484877;246;2208;-53
2022/10/06 11:21:02;;;;;;;;;;;21.70;45.10;;;;;;485151;245;1403;-53
2022/10/06 11:23:04;;;;;;;;;;;21.80;45.10;;;;;;484739;246;2332;-53
2022/10/06 11:25:04;;;;;;;;;;;21.80;45.10;;;;;;484582;246;2499;-53
2022/10/06 11:27:05;;;;;;;;;;;21.80;45.10;;;;;;484813;245;1327;-53
2022/10/06 11:29:06;;;;;;;;;;;21.80;45.00;;;;;;484959;245;2191;-53
2022/10/06 11:31:08;;;;;;;;;;;21.80;45.10;;;;;;484927;245;1324;-52
2022/10/06 11:33:09;;;;;;;;;;;21.80;45.00;;;;;;484867;245;1532;-53
2022/10/06 11:35:11;;;;;;;;;;;21.80;45.00;;;;;;484837;245;1233;-53
2022/10/06 11:37:12;;;;;;;;;;;21.80;45.10;;;;;;484791;245;1299;-53
2022/10/06 11:39:13;;;;;;;;;;;21.80;44.90;;;;;;484977;245;1255;-53
2022/10/06 11:41:15;;;;;;;;;;;21.80;44.90;;;;;;484884;245;1240;-53
2022/10/06 11:43:16;;;;;;;;;;;21.80;45.00;;;;;;484921;245;1248;-53
2022/10/06 11:45:18;;;;;;;;;;;21.80;45.00;;;;;;484916;245;1275;-53
2022/10/06 11:47:19;;;;;;;;;;;21.80;45.00;;;;;;484960;245;2156;-53
2022/10/06 11:49:20;;;;;;;;;;;21.80;44.90;;;;;;484913;245;2160;-53
2022/10/06 11:51:21;;;;;;;;;;;21.80;44.80;;;;;;485035;245;1110;-53
2022/10/06 11:53:23;;;;;;;;;;;21.80;44.80;;;;;;484889;245;1154;-53
2022/10/06 11:55:25;;;;;;;;;;;21.80;44.80;;;;;;484992;245;1179;-52
2022/10/06 11:57:26;;;;;;;;;;;21.80;44.80;;;;;;484954;245;2136;-53
2022/10/06 11:59:27;;;;;;;;;;;21.80;44.80;;;;;;484995;242;1194;-53
2022/10/06 12:01:28;;;;;;;;;;;21.80;44.80;;;;;;484882;245;1125;-54
2022/10/06 12:03:30;;;;;;;;;;;21.80;44.80;;;;;;484853;245;1151;-54
2022/10/06 12:05:31;;;;;;;;;;;21.90;44.90;;;;;;484840;245;1194;-53
2022/10/06 12:07:33;;;;;;;;;;;21.90;44.70;;;;;;485004;245;1177;-54
2022/10/06 12:09:34;;;;;;;;;;;21.80;44.80;;;;;;484829;245;2164;-54
2022/10/06 12:11:35;;;;;;;;;;;21.80;44.70;;;;;;485094;245;1846;-53
2022/10/06 12:13:37;;;;;;;;;;;21.80;44.70;;;;;;484811;245;1200;-53